createdAt,value
2022-12-06T00:02:01.608Z,3.33
2022-12-06T00:06:16.280Z,3.43
2022-12-06T00:10:27.963Z,3.63
2022-12-06T00:14:39.495Z,3.43
2022-12-06T00:18:51.840Z,3.17
2022-12-06T00:23:03.393Z,3.57
2022-12-06T00:27:21.523Z,4.60
2022-12-06T00:31:35.739Z,3.47
2022-12-06T00:36:14.791Z,3.50
2022-12-06T00:40:26.270Z,3.10
2022-12-06T00:44:37.827Z,4.47
2022-12-06T00:48:50.799Z,4.97
2022-12-06T00:53:02.312Z,3.23
2022-12-06T00:57:13.793Z,3.90
2022-12-06T01:01:28.056Z,4.90
2022-12-06T01:05:41.498Z,3.70
2022-12-06T01:09:53.097Z,4.47
2022-12-06T01:14:05.002Z,3.33
2022-12-06T01:18:16.751Z,4.00
2022-12-06T01:22:28.447Z,5.43
2022-12-06T01:26:39.959Z,3.47
2022-12-06T01:30:51.474Z,4.53
2022-12-06T01:35:03.690Z,3.37
2022-12-06T01:39:15.485Z,3.20
2022-12-06T01:43:37.775Z,3.80
2022-12-06T01:47:50.023Z,5.73
2022-12-06T01:52:09.322Z,6.47
2022-12-06T01:56:21.584Z,4.20
2022-12-06T02:00:33.250Z,3.77
2022-12-06T02:04:44.916Z,5.23
2022-12-06T02:08:58.950Z,4.40
2022-12-06T02:13:10.483Z,6.43
2022-12-06T02:17:34.510Z,4.90
2022-12-06T02:21:52.309Z,6.23
2022-12-06T02:26:12.864Z,5.40
2022-12-06T02:30:51.182Z,6.17
2022-12-06T02:35:11.761Z,12.47
2022-12-06T02:39:47.379Z,7.37
2022-12-06T02:44:04.701Z,8.90
2022-12-06T02:48:18.382Z,5.83
2022-12-06T02:52:32.154Z,6.93
2022-12-06T02:56:43.708Z,5.13
2022-12-06T03:01:01.778Z,5.40
2022-12-06T03:05:28.964Z,4.97
2022-12-06T03:09:40.404Z,9.47
2022-12-06T03:14:04.110Z,5.17
2022-12-06T03:18:50.298Z,5.67
2022-12-06T03:23:06.541Z,7.73
2022-12-06T03:27:21.272Z,6.50
2022-12-06T03:31:35.879Z,6.53
2022-12-06T03:35:50.162Z,11.77
2022-12-06T03:40:17.917Z,5.13
2022-12-06T03:44:29.722Z,6.80
2022-12-06T03:48:47.500Z,5.50
2022-12-06T03:53:01.026Z,6.37
2022-12-06T03:57:12.582Z,7.30
2022-12-06T04:01:24.237Z,5.63
2022-12-06T04:05:35.762Z,6.10
2022-12-06T04:10:03.180Z,5.93
2022-12-06T04:14:15.174Z,7.73
2022-12-06T04:18:27.655Z,5.20
2022-12-06T04:22:57.838Z,5.50
2022-12-06T04:27:27.964Z,6.00
2022-12-06T04:31:59.251Z,7.60
2022-12-06T04:36:29.769Z,7.53
2022-12-06T04:40:41.285Z,5.80
2022-12-06T04:44:52.967Z,5.33
2022-12-06T04:49:04.954Z,5.33
2022-12-06T04:53:17.392Z,5.43
2022-12-06T04:57:28.881Z,4.77
2022-12-06T05:01:40.521Z,6.03
2022-12-06T05:05:52.194Z,6.53
2022-12-06T05:10:04.184Z,4.90
2022-12-06T05:14:15.725Z,6.13
2022-12-06T05:18:28.329Z,4.27
2022-12-06T05:22:40.332Z,5.47
2022-12-06T05:26:51.921Z,7.50
2022-12-06T05:31:04.263Z,5.27
2022-12-06T05:35:15.842Z,5.67
2022-12-06T05:39:27.398Z,7.50
2022-12-06T05:43:39.248Z,4.73
2022-12-06T05:47:50.758Z,5.27
2022-12-06T05:52:04.162Z,5.10
2022-12-06T05:56:15.985Z,4.97
2022-12-06T06:00:27.571Z,5.57
2022-12-06T06:04:39.098Z,3.93
2022-12-06T06:08:52.635Z,4.50
2022-12-06T06:13:29.112Z,5.33
2022-12-06T06:17:41.431Z,5.70
2022-12-06T06:21:53.001Z,6.53
2022-12-06T06:26:09.041Z,5.73
2022-12-06T06:30:20.760Z,4.80
2022-12-06T06:34:32.365Z,5.63
2022-12-06T06:38:43.919Z,5.47
2022-12-06T06:42:55.953Z,6.70
2022-12-06T06:47:07.940Z,4.40
2022-12-06T06:51:19.570Z,5.17
2022-12-06T06:55:31.177Z,5.50
2022-12-06T06:59:43.145Z,6.33
2022-12-06T07:03:54.645Z,5.73
2022-12-06T07:08:06.394Z,5.83
2022-12-06T07:12:18.355Z,3.87
2022-12-06T07:16:30.003Z,4.60
2022-12-06T07:20:41.556Z,5.67
2022-12-06T07:24:53.675Z,4.47
2022-12-06T07:29:05.299Z,5.03
2022-12-06T07:33:16.872Z,5.10
2022-12-06T07:37:28.500Z,3.70
2022-12-06T07:41:58.609Z,4.27
2022-12-06T07:46:25.582Z,3.97
2022-12-06T07:50:37.268Z,5.03
2022-12-06T07:54:49.006Z,3.40
2022-12-06T07:59:01.172Z,7.30
2022-12-06T08:03:12.772Z,4.87
2022-12-06T08:07:25.340Z,3.33
2022-12-06T08:11:37.006Z,3.33
2022-12-06T08:15:48.791Z,3.03
2022-12-06T08:20:00.747Z,5.43
2022-12-06T08:24:12.599Z,3.97
2022-12-06T08:28:24.472Z,3.47
2022-12-06T08:32:36.087Z,3.30
2022-12-06T08:36:47.715Z,4.93
2022-12-06T08:40:59.578Z,2.27
2022-12-06T08:45:11.509Z,3.33
2022-12-06T08:49:25.125Z,5.63
2022-12-06T08:53:36.657Z,3.00
2022-12-06T08:57:48.277Z,3.20
2022-12-06T09:01:59.875Z,3.70
2022-12-06T09:06:12.019Z,2.47
2022-12-06T09:10:23.697Z,3.27
2022-12-06T09:14:35.407Z,4.63
2022-12-06T09:18:47.915Z,3.60
2022-12-06T09:22:59.407Z,7.57
2022-12-06T09:27:10.940Z,3.63
2022-12-06T09:31:23.135Z,2.63
2022-12-06T09:35:35.797Z,3.77
2022-12-06T09:39:52.019Z,5.00
2022-12-06T09:44:25.192Z,4.70
2022-12-06T09:49:06.946Z,3.43
2022-12-06T09:53:53.121Z,2.57
2022-12-06T09:58:16.639Z,3.20
2022-12-06T10:02:34.432Z,3.70
2022-12-06T10:06:59.020Z,2.33
2022-12-06T10:11:32.295Z,1.87
2022-12-06T10:15:53.234Z,2.63
2022-12-06T10:20:34.892Z,2.03
2022-12-06T10:25:08.647Z,2.97
2022-12-06T10:29:32.084Z,1.70
2022-12-06T10:33:55.281Z,2.93
2022-12-06T10:38:23.057Z,3.23
2022-12-06T10:42:47.923Z,3.53
2022-12-06T10:47:06.278Z,2.13
2022-12-06T10:51:37.164Z,4.30
2022-12-06T10:55:54.838Z,2.17
2022-12-06T11:00:20.681Z,3.67
2022-12-06T11:04:36.804Z,2.70
2022-12-06T11:08:58.412Z,3.67
2022-12-06T11:13:19.887Z,2.83
2022-12-06T11:17:37.012Z,2.73
2022-12-06T11:22:05.939Z,1.60
2022-12-06T11:26:30.848Z,2.23
2022-12-06T11:30:42.419Z,6.07
2022-12-06T11:34:56.811Z,2.00
2022-12-06T11:39:10.928Z,3.40
2022-12-06T11:43:29.448Z,2.13
2022-12-06T11:47:41.135Z,4.83
2022-12-06T11:51:53.482Z,2.10
2022-12-06T11:56:20.094Z,2.23
2022-12-06T12:00:31.675Z,2.73
2022-12-06T12:04:44.860Z,4.57
2022-12-06T12:09:18.597Z,2.07
2022-12-06T12:13:46.612Z,3.47
2022-12-06T12:17:59.876Z,2.00
2022-12-06T12:22:24.084Z,2.53
2022-12-06T12:26:41.651Z,2.77
2022-12-06T12:30:55.751Z,2.30
2022-12-06T12:35:22.781Z,2.00
2022-12-06T12:39:47.426Z,1.90
2022-12-06T12:44:36.378Z,4.20
2022-12-06T12:48:47.022Z,2.63
2022-12-06T12:52:59.127Z,3.40
2022-12-06T12:57:14.492Z,1.57
2022-12-06T13:01:34.428Z,1.90
2022-12-06T13:05:49.390Z,2.30
2022-12-06T13:10:12.371Z,3.87
2022-12-06T13:14:26.001Z,1.40
2022-12-06T13:18:51.095Z,2.13
2022-12-06T13:23:15.391Z,3.10
2022-12-06T13:27:31.003Z,3.27
2022-12-06T13:31:42.728Z,3.13
2022-12-06T13:36:04.902Z,3.97
2022-12-06T13:40:35.093Z,3.53
2022-12-06T13:45:01.839Z,5.17
2022-12-06T13:49:26.318Z,2.80
2022-12-06T13:54:06.920Z,2.83
2022-12-06T13:58:18.271Z,2.87
2022-12-06T14:02:44.809Z,5.10
2022-12-06T14:07:02.690Z,3.80
2022-12-06T14:11:29.045Z,4.03
2022-12-06T14:15:41.120Z,2.47
2022-12-06T14:19:54.066Z,4.37
2022-12-06T14:24:05.987Z,2.10
2022-12-06T14:28:18.915Z,20.00
2022-12-06T14:32:37.123Z,5.33
2022-12-06T14:36:48.966Z,2.50
2022-12-06T14:41:19.147Z,3.87
2022-12-06T14:45:33.464Z,3.10
2022-12-06T14:50:10.168Z,2.30
2022-12-06T14:54:27.736Z,4.37
2022-12-06T14:58:45.150Z,2.60
2022-12-06T15:03:03.312Z,2.53
2022-12-06T15:07:31.681Z,2.23
2022-12-06T15:12:02.334Z,5.60
2022-12-06T15:16:15.216Z,5.57
2022-12-06T15:20:26.725Z,3.87
2022-12-06T15:24:38.260Z,3.23
2022-12-06T15:28:50.367Z,4.50
2022-12-06T15:33:01.818Z,5.37
2022-12-06T15:37:38.100Z,4.53
2022-12-06T15:41:47.063Z,2.60
2022-12-06T15:46:03.658Z,2.93
2022-12-06T15:50:15.510Z,5.80
2022-12-06T15:54:27.019Z,4.20
2022-12-06T15:58:38.551Z,6.23
2022-12-06T16:02:50.224Z,2.90
2022-12-06T16:07:01.902Z,3.77
2022-12-06T16:11:15.989Z,6.57
2022-12-06T16:15:27.493Z,5.13
2022-12-06T16:20:02.104Z,3.50
2022-12-06T16:24:14.692Z,2.83
2022-12-06T16:28:27.052Z,2.47
2022-12-06T16:32:38.569Z,5.37
2022-12-06T16:37:00.818Z,5.57
2022-12-06T16:41:19.778Z,5.93
2022-12-06T16:45:35.225Z,4.87
2022-12-06T16:49:48.515Z,5.47
2022-12-06T16:54:02.736Z,3.83
2022-12-06T16:58:16.720Z,3.70
2022-12-06T17:02:32.288Z,5.03
2022-12-06T17:06:44.050Z,4.97
2022-12-06T17:11:15.553Z,6.10
2022-12-06T17:15:27.032Z,6.83
2022-12-06T17:19:38.631Z,10.33
2022-12-06T17:23:50.208Z,5.13
2022-12-06T17:28:01.664Z,4.90
2022-12-06T17:32:13.803Z,10.20
2022-12-06T17:36:26.042Z,13.43
2022-12-06T17:40:37.489Z,8.87
2022-12-06T17:44:50.828Z,11.40
2022-12-06T17:49:03.176Z,6.50
2022-12-06T17:53:14.665Z,7.87
2022-12-06T17:57:26.209Z,6.83
2022-12-06T18:02:12.973Z,6.60
2022-12-06T18:06:10.708Z,9.00
2022-12-06T18:10:22.525Z,18.57
2022-12-06T18:14:34.043Z,14.00
2022-12-06T18:18:46.925Z,5.90
2022-12-06T18:22:58.406Z,5.87
2022-12-06T18:27:09.918Z,5.97
2022-12-06T18:31:22.388Z,6.73
2022-12-06T18:35:35.987Z,6.57
2022-12-06T18:39:47.458Z,5.33
2022-12-06T18:44:03.628Z,5.67
2022-12-06T18:48:15.149Z,7.73
2022-12-06T18:52:27.971Z,15.37
2022-12-06T18:56:39.531Z,10.97
2022-12-06T19:00:51.093Z,27.63
2022-12-06T19:05:02.945Z,9.90
2022-12-06T19:09:15.648Z,9.00
2022-12-06T19:13:27.113Z,7.67
2022-12-06T19:17:38.603Z,7.77
2022-12-06T19:21:52.295Z,7.07
2022-12-06T19:26:04.610Z,7.77
2022-12-06T19:30:16.535Z,6.80
2022-12-06T19:34:29.350Z,6.87
2022-12-06T19:38:41.022Z,8.53
2022-12-06T19:43:11.115Z,8.20
2022-12-06T19:47:22.732Z,12.77
2022-12-06T19:51:39.064Z,13.17
2022-12-06T19:55:50.511Z,8.97
2022-12-06T20:00:02.113Z,9.73
2022-12-06T20:04:31.264Z,10.77
2022-12-06T20:08:44.687Z,10.30
2022-12-06T20:12:56.180Z,9.17
2022-12-06T20:17:13.877Z,8.73
2022-12-06T20:21:25.497Z,19.37
2022-12-06T20:25:37.167Z,17.10
2022-12-06T20:29:48.852Z,11.70
2022-12-06T20:34:02.798Z,12.17
2022-12-06T20:38:14.275Z,11.53
2022-12-06T20:42:26.488Z,9.10
2022-12-06T20:46:38.066Z,9.87
2022-12-06T20:50:49.627Z,10.03
2022-12-06T20:55:01.205Z,7.47
2022-12-06T20:59:12.692Z,16.50
2022-12-06T21:03:24.187Z,11.60
2022-12-06T21:07:35.778Z,9.20
2022-12-06T21:11:48.012Z,9.77
2022-12-06T21:16:13.761Z,9.07
2022-12-06T21:20:25.351Z,10.00
2022-12-06T21:24:36.959Z,10.53
2022-12-06T21:28:48.545Z,8.90
2022-12-06T21:33:00.173Z,10.10
2022-12-06T21:37:11.713Z,9.30
2022-12-06T21:41:23.518Z,12.85
2022-12-06T21:45:39.274Z,11.80
2022-12-06T21:49:50.861Z,13.23
2022-12-06T21:54:02.516Z,8.67
2022-12-06T21:58:14.103Z,8.97
2022-12-06T22:02:25.919Z,10.63
2022-12-06T22:06:37.646Z,8.27
2022-12-06T22:10:52.590Z,9.53
2022-12-06T22:15:04.491Z,8.37
2022-12-06T22:19:16.223Z,10.23
2022-12-06T22:23:29.422Z,11.07
2022-12-06T22:27:41.083Z,10.73
2022-12-06T22:31:52.787Z,9.20
2022-12-06T22:36:04.871Z,8.03
2022-12-06T22:40:16.538Z,7.90
2022-12-06T22:44:28.155Z,8.17
2022-12-06T22:48:40.728Z,7.63
2022-12-06T22:52:52.269Z,9.07
2022-12-06T22:57:03.900Z,10.03
2022-12-06T23:01:18.226Z,8.63
2022-12-06T23:05:29.834Z,9.43
2022-12-06T23:09:41.493Z,8.80
2022-12-06T23:13:54.791Z,8.70
2022-12-06T23:18:06.329Z,13.37
2022-12-06T23:22:17.950Z,8.23
2022-12-06T23:26:35.767Z,7.57
2022-12-06T23:30:47.338Z,9.47
2022-12-06T23:34:58.927Z,9.87
2022-12-06T23:39:11.601Z,7.20
2022-12-06T23:43:23.279Z,7.37
2022-12-06T23:47:34.878Z,6.47
2022-12-06T23:51:47.240Z,7.87
2022-12-06T23:56:00.095Z,10.00
